sensor_id;sensor_type;location;lat;lon;timestamp;temperature;humidity
40454;DHT22;26160;51.858;4.398;2024-03-25T00:02:02;6.60;1.00
40454;DHT22;26160;51.858;4.398;2024-03-25T00:04:29;6.60;1.00
40454;DHT22;26160;51.858;4.398;2024-03-25T00:06:55;6.50;1.00
40454;DHT22;26160;51.858;4.398;2024-03-25T00:09:22;6.40;1.00
40454;DHT22;26160;51.858;4.398;2024-03-25T00:11:49;6.40;1.00
40454;DHT22;26160;51.858;4.398;2024-03-25T00:14:15;6.30;3.60
40454;DHT22;26160;51.858;4.398;2024-03-25T00:16:41;6.30;7.40
40454;DHT22;26160;51.858;4.398;2024-03-25T00:19:07;6.20;13.90
40454;DHT22;26160;51.858;4.398;2024-03-25T00:21:33;6.10;20.70
40454;DHT22;26160;51.858;4.398;2024-03-25T00:23:59;6.10;26.90
40454;DHT22;26160;51.858;4.398;2024-03-25T00:26:26;6.00;31.20
40454;DHT22;26160;51.858;4.398;2024-03-25T00:28:52;6.00;34.10
40454;DHT22;26160;51.858;4.398;2024-03-25T00:31:18;6.10;40.90
40454;DHT22;26160;51.858;4.398;2024-03-25T00:33:45;6.10;38.80
40454;DHT22;26160;51.858;4.398;2024-03-25T00:36:11;6.10;31.50
40454;DHT22;26160;51.858;4.398;2024-03-25T00:38:40;6.10;29.60
40454;DHT22;26160;51.858;4.398;2024-03-25T00:41:07;6.10;31.10
40454;DHT22;26160;51.858;4.398;2024-03-25T00:43:33;6.00;37.30
40454;DHT22;26160;51.858;4.398;2024-03-25T00:45:59;6.00;37.70
40454;DHT22;26160;51.858;4.398;2024-03-25T00:48:25;5.90;43.20
40454;DHT22;26160;51.858;4.398;2024-03-25T00:50:51;5.80;46.70
40454;DHT22;26160;51.858;4.398;2024-03-25T00:53:18;5.80;51.00
40454;DHT22;26160;51.858;4.398;2024-03-25T00:55:44;5.70;55.60
40454;DHT22;26160;51.858;4.398;2024-03-25T00:58:11;5.70;64.40
40454;DHT22;26160;51.858;4.398;2024-03-25T01:00:37;5.70;64.50
40454;DHT22;26160;51.858;4.398;2024-03-25T01:03:03;5.80;64.00
40454;DHT22;26160;51.858;4.398;2024-03-25T01:05:29;5.80;60.20
40454;DHT22;26160;51.858;4.398;2024-03-25T01:07:55;5.80;57.20
40454;DHT22;26160;51.858;4.398;2024-03-25T01:10:21;5.90;52.90
40454;DHT22;26160;51.858;4.398;2024-03-25T01:12:47;5.80;49.10
40454;DHT22;26160;51.858;4.398;2024-03-25T01:15:14;5.90;47.60
40454;DHT22;26160;51.858;4.398;2024-03-25T01:17:40;5.80;45.80
40454;DHT22;26160;51.858;4.398;2024-03-25T01:20:06;5.80;45.90
40454;DHT22;26160;51.858;4.398;2024-03-25T01:22:32;5.70;47.80
40454;DHT22;26160;51.858;4.398;2024-03-25T01:24:58;5.70;46.30
40454;DHT22;26160;51.858;4.398;2024-03-25T01:27:25;5.60;51.50
40454;DHT22;26160;51.858;4.398;2024-03-25T01:29:51;5.60;50.80
40454;DHT22;26160;51.858;4.398;2024-03-25T01:32:17;5.50;54.70
40454;DHT22;26160;51.858;4.398;2024-03-25T01:34:43;5.50;56.30
40454;DHT22;26160;51.858;4.398;2024-03-25T01:37:09;5.50;58.80
40454;DHT22;26160;51.858;4.398;2024-03-25T01:39:35;5.40;58.40
40454;DHT22;26160;51.858;4.398;2024-03-25T01:42:03;5.40;59.00
40454;DHT22;26160;51.858;4.398;2024-03-25T01:44:29;5.40;59.40
40454;DHT22;26160;51.858;4.398;2024-03-25T01:46:55;5.40;59.30
40454;DHT22;26160;51.858;4.398;2024-03-25T01:49:21;5.40;62.90
40454;DHT22;26160;51.858;4.398;2024-03-25T01:51:48;5.30;64.30
40454;DHT22;26160;51.858;4.398;2024-03-25T01:54:14;5.30;62.90
40454;DHT22;26160;51.858;4.398;2024-03-25T01:56:43;5.30;68.10
40454;DHT22;26160;51.858;4.398;2024-03-25T01:59:10;5.20;64.00
40454;DHT22;26160;51.858;4.398;2024-03-25T02:04:13;5.20;68.30
40454;DHT22;26160;51.858;4.398;2024-03-25T02:06:40;5.10;68.80
40454;DHT22;26160;51.858;4.398;2024-03-25T02:09:08;5.00;73.30
40454;DHT22;26160;51.858;4.398;2024-03-25T02:11:35;5.00;81.60
40454;DHT22;26160;51.858;4.398;2024-03-25T02:14:01;4.90;83.10
40454;DHT22;26160;51.858;4.398;2024-03-25T02:16:27;4.80;84.20
40454;DHT22;26160;51.858;4.398;2024-03-25T02:18:53;4.70;87.80
40454;DHT22;26160;51.858;4.398;2024-03-25T02:21:20;4.70;90.60
40454;DHT22;26160;51.858;4.398;2024-03-25T02:23:47;4.60;92.60
40454;DHT22;26160;51.858;4.398;2024-03-25T02:26:16;4.50;96.00
40454;DHT22;26160;51.858;4.398;2024-03-25T02:28:42;4.40;95.90
40454;DHT22;26160;51.858;4.398;2024-03-25T02:31:08;4.30;97.20
40454;DHT22;26160;51.858;4.398;2024-03-25T02:33:34;4.30;99.90
40454;DHT22;26160;51.858;4.398;2024-03-25T02:36:00;4.20;99.90
40454;DHT22;26160;51.858;4.398;2024-03-25T02:38:27;4.10;99.90
40454;DHT22;26160;51.858;4.398;2024-03-25T02:40:53;4.00;99.90
40454;DHT22;26160;51.858;4.398;2024-03-25T02:43:20;4.00;99.90
40454;DHT22;26160;51.858;4.398;2024-03-25T02:45:47;4.00;99.90
40454;DHT22;26160;51.858;4.398;2024-03-25T02:48:13;3.90;99.90
40454;DHT22;26160;51.858;4.398;2024-03-25T02:50:39;3.90;99.90
40454;DHT22;26160;51.858;4.398;2024-03-25T02:53:05;3.80;99.90
40454;DHT22;26160;51.858;4.398;2024-03-25T02:55:32;3.70;99.90
40454;DHT22;26160;51.858;4.398;2024-03-25T02:57:58;3.70;99.90
40454;DHT22;26160;51.858;4.398;2024-03-25T03:00:24;3.60;99.90
40454;DHT22;26160;51.858;4.398;2024-03-25T03:02:50;3.60;99.90
40454;DHT22;26160;51.858;4.398;2024-03-25T03:05:18;3.60;99.90
40454;DHT22;26160;51.858;4.398;2024-03-25T03:07:44;3.50;99.90
40454;DHT22;26160;51.858;4.398;2024-03-25T03:10:13;3.50;99.90
40454;DHT22;26160;51.858;4.398;2024-03-25T03:12:39;3.50;99.90
40454;DHT22;26160;51.858;4.398;2024-03-25T03:15:06;3.50;99.90
40454;DHT22;26160;51.858;4.398;2024-03-25T03:17:32;3.40;99.90
40454;DHT22;26160;51.858;4.398;2024-03-25T03:19:58;3.40;99.90
40454;DHT22;26160;51.858;4.398;2024-03-25T03:22:24;3.40;99.90
40454;DHT22;26160;51.858;4.398;2024-03-25T03:24:50;3.40;99.90
40454;DHT22;26160;51.858;4.398;2024-03-25T03:27:17;3.30;99.90
40454;DHT22;26160;51.858;4.398;2024-03-25T03:29:43;3.30;99.90
40454;DHT22;26160;51.858;4.398;2024-03-25T03:32:09;3.20;99.90
40454;DHT22;26160;51.858;4.398;2024-03-25T03:34:35;3.30;99.90
40454;DHT22;26160;51.858;4.398;2024-03-25T03:37:01;3.20;99.90
40454;DHT22;26160;51.858;4.398;2024-03-25T03:39:27;3.20;99.90
40454;DHT22;26160;51.858;4.398;2024-03-25T03:41:54;3.20;99.90
40454;DHT22;26160;51.858;4.398;2024-03-25T03:44:20;3.20;99.90
40454;DHT22;26160;51.858;4.398;2024-03-25T03:46:46;3.20;99.90
40454;DHT22;26160;51.858;4.398;2024-03-25T03:49:12;3.10;99.90
40454;DHT22;26160;51.858;4.398;2024-03-25T03:51:39;3.10;99.90
40454;DHT22;26160;51.858;4.398;2024-03-25T03:54:05;3.10;99.90
40454;DHT22;26160;51.858;4.398;2024-03-25T03:56:31;3.20;99.90
40454;DHT22;26160;51.858;4.398;2024-03-25T03:58:57;3.10;99.90
40454;DHT22;26160;51.858;4.398;2024-03-25T04:01:23;3.20;99.90
40454;DHT22;26160;51.858;4.398;2024-03-25T04:03:49;3.20;99.90
40454;DHT22;26160;51.858;4.398;2024-03-25T04:06:15;3.30;99.90
40454;DHT22;26160;51.858;4.398;2024-03-25T04:08:41;3.40;99.90
40454;DHT22;26160;51.858;4.398;2024-03-25T04:11:07;3.50;99.90
40454;DHT22;26160;51.858;4.398;2024-03-25T04:13:34;3.40;99.90
40454;DHT22;26160;51.858;4.398;2024-03-25T04:16:05;3.40;99.90
40454;DHT22;26160;51.858;4.398;2024-03-25T04:18:32;3.50;99.90
40454;DHT22;26160;51.858;4.398;2024-03-25T04:20:59;3.40;99.90
40454;DHT22;26160;51.858;4.398;2024-03-25T04:23:25;3.40;99.90
40454;DHT22;26160;51.858;4.398;2024-03-25T04:25:52;3.40;99.90
40454;DHT22;26160;51.858;4.398;2024-03-25T04:28:19;3.30;99.90
40454;DHT22;26160;51.858;4.398;2024-03-25T04:30:50;3.30;99.90
40454;DHT22;26160;51.858;4.398;2024-03-25T04:33:17;3.20;99.90
40454;DHT22;26160;51.858;4.398;2024-03-25T04:35:43;3.20;99.90
40454;DHT22;26160;51.858;4.398;2024-03-25T04:38:09;3.10;99.90
40454;DHT22;26160;51.858;4.398;2024-03-25T04:40:36;3.10;99.90
40454;DHT22;26160;51.858;4.398;2024-03-25T04:43:02;3.10;99.90
40454;DHT22;26160;51.858;4.398;2024-03-25T04:45:28;3.10;99.90
40454;DHT22;26160;51.858;4.398;2024-03-25T04:47:54;3.00;99.90
40454;DHT22;26160;51.858;4.398;2024-03-25T04:50:21;3.00;99.90
40454;DHT22;26160;51.858;4.398;2024-03-25T04:52:47;2.90;99.90
40454;DHT22;26160;51.858;4.398;2024-03-25T04:55:14;2.90;99.90
40454;DHT22;26160;51.858;4.398;2024-03-25T04:57:41;2.80;99.90
40454;DHT22;26160;51.858;4.398;2024-03-25T05:00:07;2.80;99.90
40454;DHT22;26160;51.858;4.398;2024-03-25T05:02:37;2.70;99.90
40454;DHT22;26160;51.858;4.398;2024-03-25T05:05:04;2.70;99.90
40454;DHT22;26160;51.858;4.398;2024-03-25T05:07:30;2.70;99.90
40454;DHT22;26160;51.858;4.398;2024-03-25T05:09:56;2.70;99.90
40454;DHT22;26160;51.858;4.398;2024-03-25T05:12:23;2.60;99.90
40454;DHT22;26160;51.858;4.398;2024-03-25T05:14:49;2.60;99.90
40454;DHT22;26160;51.858;4.398;2024-03-25T05:17:15;2.60;99.90
40454;DHT22;26160;51.858;4.398;2024-03-25T05:19:41;2.50;99.90
40454;DHT22;26160;51.858;4.398;2024-03-25T05:22:07;2.50;99.90
40454;DHT22;26160;51.858;4.398;2024-03-25T05:24:33;2.50;99.90
40454;DHT22;26160;51.858;4.398;2024-03-25T05:26:59;2.40;99.90
40454;DHT22;26160;51.858;4.398;2024-03-25T05:29:25;2.40;99.90
40454;DHT22;26160;51.858;4.398;2024-03-25T05:32:01;2.40;99.90
40454;DHT22;26160;51.858;4.398;2024-03-25T05:34:28;2.40;99.90
40454;DHT22;26160;51.858;4.398;2024-03-25T05:36:54;2.40;99.90
40454;DHT22;26160;51.858;4.398;2024-03-25T05:39:21;2.40;99.90
40454;DHT22;26160;51.858;4.398;2024-03-25T05:41:47;2.30;99.90
40454;DHT22;26160;51.858;4.398;2024-03-25T05:44:14;2.30;99.90
40454;DHT22;26160;51.858;4.398;2024-03-25T05:46:40;2.30;99.90
40454;DHT22;26160;51.858;4.398;2024-03-25T05:49:07;2.30;99.90
40454;DHT22;26160;51.858;4.398;2024-03-25T05:51:33;2.30;99.90
40454;DHT22;26160;51.858;4.398;2024-03-25T05:53:59;2.30;99.90
40454;DHT22;26160;51.858;4.398;2024-03-25T05:56:25;2.30;99.90
40454;DHT22;26160;51.858;4.398;2024-03-25T05:59:00;2.30;99.90
40454;DHT22;26160;51.858;4.398;2024-03-25T06:01:26;2.40;99.90
40454;DHT22;26160;51.858;4.398;2024-03-25T06:03:52;2.30;99.90
40454;DHT22;26160;51.858;4.398;2024-03-25T06:06:19;2.40;99.90
40454;DHT22;26160;51.858;4.398;2024-03-25T06:08:45;2.40;99.90
40454;DHT22;26160;51.858;4.398;2024-03-25T06:11:11;2.40;99.90
40454;DHT22;26160;51.858;4.398;2024-03-25T06:13:37;2.40;99.90
40454;DHT22;26160;51.858;4.398;2024-03-25T06:16:04;2.40;99.90
40454;DHT22;26160;51.858;4.398;2024-03-25T06:18:30;2.50;99.90
40454;DHT22;26160;51.858;4.398;2024-03-25T06:20:56;2.50;99.90
40454;DHT22;26160;51.858;4.398;2024-03-25T06:23:23;2.50;99.90
40454;DHT22;26160;51.858;4.398;2024-03-25T06:25:50;2.50;99.90
40454;DHT22;26160;51.858;4.398;2024-03-25T06:28:17;2.60;99.90
40454;DHT22;26160;51.858;4.398;2024-03-25T06:30:44;2.70;99.90
40454;DHT22;26160;51.858;4.398;2024-03-25T06:33:28;2.70;99.90
40454;DHT22;26160;51.858;4.398;2024-03-25T06:36:13;2.80;99.90
40454;DHT22;26160;51.858;4.398;2024-03-25T06:38:39;2.90;99.90
40454;DHT22;26160;51.858;4.398;2024-03-25T06:41:05;3.00;99.90
40454;DHT22;26160;51.858;4.398;2024-03-25T06:43:31;3.10;99.90
40454;DHT22;26160;51.858;4.398;2024-03-25T06:45:57;3.20;99.90
40454;DHT22;26160;51.858;4.398;2024-03-25T06:48:24;3.50;99.90
40454;DHT22;26160;51.858;4.398;2024-03-25T06:50:56;3.70;99.90
40454;DHT22;26160;51.858;4.398;2024-03-25T06:53:23;3.90;99.90
40454;DHT22;26160;51.858;4.398;2024-03-25T06:55:59;4.20;99.90
40454;DHT22;26160;51.858;4.398;2024-03-25T06:58:26;4.40;99.90
40454;DHT22;26160;51.858;4.398;2024-03-25T07:00:55;4.60;99.90
40454;DHT22;26160;51.858;4.398;2024-03-25T07:03:22;4.70;99.90
40454;DHT22;26160;51.858;4.398;2024-03-25T07:05:49;4.90;99.90
40454;DHT22;26160;51.858;4.398;2024-03-25T07:08:18;5.00;99.90
40454;DHT22;26160;51.858;4.398;2024-03-25T07:10:45;5.10;99.90
40454;DHT22;26160;51.858;4.398;2024-03-25T07:13:12;5.10;99.90
40454;DHT22;26160;51.858;4.398;2024-03-25T07:15:38;5.20;99.90
40454;DHT22;26160;51.858;4.398;2024-03-25T07:18:05;5.30;99.90
40454;DHT22;26160;51.858;4.398;2024-03-25T07:20:32;5.40;99.90
40454;DHT22;26160;51.858;4.398;2024-03-25T07:22:58;5.40;99.90
40454;DHT22;26160;51.858;4.398;2024-03-25T07:25:25;5.50;99.90
40454;DHT22;26160;51.858;4.398;2024-03-25T07:27:52;5.60;99.90
40454;DHT22;26160;51.858;4.398;2024-03-25T07:30:21;5.60;99.90
40454;DHT22;26160;51.858;4.398;2024-03-25T07:32:57;5.60;99.90
40454;DHT22;26160;51.858;4.398;2024-03-25T07:35:23;5.70;99.90
40454;DHT22;26160;51.858;4.398;2024-03-25T07:37:49;5.80;99.90
40454;DHT22;26160;51.858;4.398;2024-03-25T07:40:17;5.90;99.90
40454;DHT22;26160;51.858;4.398;2024-03-25T07:42:44;6.00;99.90
40454;DHT22;26160;51.858;4.398;2024-03-25T07:45:13;6.00;99.90
40454;DHT22;26160;51.858;4.398;2024-03-25T07:47:40;6.10;99.90
40454;DHT22;26160;51.858;4.398;2024-03-25T07:50:07;6.20;99.90
40454;DHT22;26160;51.858;4.398;2024-03-25T07:52:34;6.30;99.90
40454;DHT22;26160;51.858;4.398;2024-03-25T07:55:08;6.40;99.90
40454;DHT22;26160;51.858;4.398;2024-03-25T07:57:35;6.40;99.90
40454;DHT22;26160;51.858;4.398;2024-03-25T08:00:03;6.50;99.90
40454;DHT22;26160;51.858;4.398;2024-03-25T08:02:31;6.60;99.90
40454;DHT22;26160;51.858;4.398;2024-03-25T08:04:57;6.70;99.90
40454;DHT22;26160;51.858;4.398;2024-03-25T08:07:23;6.70;99.90
40454;DHT22;26160;51.858;4.398;2024-03-25T08:09:49;6.80;99.90
40454;DHT22;26160;51.858;4.398;2024-03-25T08:12:16;6.80;99.90
40454;DHT22;26160;51.858;4.398;2024-03-25T08:14:42;6.90;99.90
40454;DHT22;26160;51.858;4.398;2024-03-25T08:17:09;7.00;99.90
40454;DHT22;26160;51.858;4.398;2024-03-25T08:19:35;7.20;99.90
40454;DHT22;26160;51.858;4.398;2024-03-25T08:22:01;6.90;99.90
40454;DHT22;26160;51.858;4.398;2024-03-25T08:24:27;7.00;99.90
40454;DHT22;26160;51.858;4.398;2024-03-25T08:26:54;7.00;99.90
40454;DHT22;26160;51.858;4.398;2024-03-25T08:29:20;6.80;99.90
40454;DHT22;26160;51.858;4.398;2024-03-25T08:31:46;6.90;99.90
40454;DHT22;26160;51.858;4.398;2024-03-25T08:34:13;6.80;99.90
40454;DHT22;26160;51.858;4.398;2024-03-25T08:36:39;6.50;99.90
40454;DHT22;26160;51.858;4.398;2024-03-25T08:39:05;6.40;99.90
40454;DHT22;26160;51.858;4.398;2024-03-25T08:41:32;6.50;99.90
40454;DHT22;26160;51.858;4.398;2024-03-25T08:43:58;6.40;99.90
40454;DHT22;26160;51.858;4.398;2024-03-25T08:46:25;6.50;99.90
40454;DHT22;26160;51.858;4.398;2024-03-25T08:48:51;6.60;99.90
40454;DHT22;26160;51.858;4.398;2024-03-25T08:51:17;6.80;99.90
40454;DHT22;26160;51.858;4.398;2024-03-25T08:53:43;6.90;99.90
40454;DHT22;26160;51.858;4.398;2024-03-25T08:56:09;7.00;99.90
40454;DHT22;26160;51.858;4.398;2024-03-25T08:58:35;6.90;99.90
40454;DHT22;26160;51.858;4.398;2024-03-25T09:01:01;6.90;99.90
40454;DHT22;26160;51.858;4.398;2024-03-25T09:03:28;6.90;99.90
40454;DHT22;26160;51.858;4.398;2024-03-25T09:05:55;7.00;99.90
40454;DHT22;26160;51.858;4.398;2024-03-25T09:08:22;6.90;99.90
40454;DHT22;26160;51.858;4.398;2024-03-25T09:10:48;7.00;99.90
40454;DHT22;26160;51.858;4.398;2024-03-25T09:13:30;7.20;99.90
40454;DHT22;26160;51.858;4.398;2024-03-25T09:15:56;7.20;99.90
40454;DHT22;26160;51.858;4.398;2024-03-25T09:18:22;7.20;99.90
40454;DHT22;26160;51.858;4.398;2024-03-25T09:20:49;7.40;99.90
40454;DHT22;26160;51.858;4.398;2024-03-25T09:23:15;7.50;99.90
40454;DHT22;26160;51.858;4.398;2024-03-25T09:25:51;7.70;99.90
40454;DHT22;26160;51.858;4.398;2024-03-25T09:28:17;7.70;99.90
40454;DHT22;26160;51.858;4.398;2024-03-25T09:30:43;7.90;99.90
40454;DHT22;26160;51.858;4.398;2024-03-25T09:33:13;8.00;99.90
40454;DHT22;26160;51.858;4.398;2024-03-25T09:35:39;8.20;99.90
40454;DHT22;26160;51.858;4.398;2024-03-25T09:38:08;8.30;90.50
40454;DHT22;26160;51.858;4.398;2024-03-25T09:40:40;8.50;71.40
40454;DHT22;26160;51.858;4.398;2024-03-25T09:43:13;8.40;60.00
40454;DHT22;26160;51.858;4.398;2024-03-25T09:45:44;8.60;57.40
40454;DHT22;26160;51.858;4.398;2024-03-25T09:48:16;8.80;55.00
40454;DHT22;26160;51.858;4.398;2024-03-25T09:50:43;9.10;23.80
40454;DHT22;26160;51.858;4.398;2024-03-25T09:53:10;8.60;17.40
40454;DHT22;26160;51.858;4.398;2024-03-25T09:55:37;8.50;40.30
40454;DHT22;26160;51.858;4.398;2024-03-25T09:58:04;8.70;34.90
40454;DHT22;26160;51.858;4.398;2024-03-25T10:00:30;8.90;31.20
40454;DHT22;26160;51.858;4.398;2024-03-25T10:02:56;9.10;19.50
40454;DHT22;26160;51.858;4.398;2024-03-25T10:05:23;9.40;4.70
40454;DHT22;26160;51.858;4.398;2024-03-25T10:07:49;9.20;1.00
40454;DHT22;26160;51.858;4.398;2024-03-25T10:10:19;9.30;1.00
40454;DHT22;26160;51.858;4.398;2024-03-25T10:12:46;9.50;1.00
40454;DHT22;26160;51.858;4.398;2024-03-25T10:15:16;9.80;1.00
40454;DHT22;26160;51.858;4.398;2024-03-25T10:17:45;9.90;1.00
40454;DHT22;26160;51.858;4.398;2024-03-25T10:20:14;10.20;1.00
40454;DHT22;26160;51.858;4.398;2024-03-25T10:22:44;10.40;1.00
40454;DHT22;26160;51.858;4.398;2024-03-25T10:25:31;10.70;1.00
40454;DHT22;26160;51.858;4.398;2024-03-25T10:27:58;10.60;1.00
40454;DHT22;26160;51.858;4.398;2024-03-25T10:30:28;10.40;1.00
40454;DHT22;26160;51.858;4.398;2024-03-25T10:35:29;10.70;1.00
40454;DHT22;26160;51.858;4.398;2024-03-25T10:37:59;10.80;1.00
40454;DHT22;26160;51.858;4.398;2024-03-25T10:40:30;11.10;1.00
40454;DHT22;26160;51.858;4.398;2024-03-25T10:43:17;10.90;1.00
40454;DHT22;26160;51.858;4.398;2024-03-25T10:45:46;10.60;1.00
40454;DHT22;26160;51.858;4.398;2024-03-25T10:48:37;10.60;1.00
40454;DHT22;26160;51.858;4.398;2024-03-25T10:51:06;10.80;1.00
40454;DHT22;26160;51.858;4.398;2024-03-25T10:53:36;11.10;1.00
40454;DHT22;26160;51.858;4.398;2024-03-25T10:56:03;11.60;1.00
40454;DHT22;26160;51.858;4.398;2024-03-25T10:58:31;11.60;1.00
40454;DHT22;26160;51.858;4.398;2024-03-25T11:00:59;11.50;1.00
40454;DHT22;26160;51.858;4.398;2024-03-25T11:03:26;11.20;1.00
40454;DHT22;26160;51.858;4.398;2024-03-25T11:05:53;11.40;1.00
40454;DHT22;26160;51.858;4.398;2024-03-25T11:08:19;11.60;1.00
40454;DHT22;26160;51.858;4.398;2024-03-25T11:10:47;11.80;1.00
40454;DHT22;26160;51.858;4.398;2024-03-25T11:13:19;11.90;1.00
40454;DHT22;26160;51.858;4.398;2024-03-25T11:15:47;12.10;1.00
40454;DHT22;26160;51.858;4.398;2024-03-25T11:18:16;11.90;99.90
40454;DHT22;26160;51.858;4.398;2024-03-25T11:20:43;12.00;1.00
40454;DHT22;26160;51.858;4.398;2024-03-25T11:23:13;12.00;99.90
40454;DHT22;26160;51.858;4.398;2024-03-25T11:25:41;12.00;99.90
40454;DHT22;26160;51.858;4.398;2024-03-25T11:28:11;12.00;99.90
40454;DHT22;26160;51.858;4.398;2024-03-25T11:30:37;12.20;99.90
40454;DHT22;26160;51.858;4.398;2024-03-25T11:33:07;12.10;1.00
40454;DHT22;26160;51.858;4.398;2024-03-25T11:35:37;12.20;1.00
40454;DHT22;26160;51.858;4.398;2024-03-25T11:38:04;12.50;99.90
40454;DHT22;26160;51.858;4.398;2024-03-25T11:40:30;12.50;1.00
40454;DHT22;26160;51.858;4.398;2024-03-25T11:42:56;12.70;1.00
40454;DHT22;26160;51.858;4.398;2024-03-25T11:45:24;12.80;99.90
40454;DHT22;26160;51.858;4.398;2024-03-25T11:47:51;12.30;99.90
40454;DHT22;26160;51.858;4.398;2024-03-25T11:50:18;12.20;1.00
40454;DHT22;26160;51.858;4.398;2024-03-25T11:52:45;12.60;1.00
40454;DHT22;26160;51.858;4.398;2024-03-25T11:55:16;12.70;1.00
40454;DHT22;26160;51.858;4.398;2024-03-25T11:57:43;13.00;1.00
40454;DHT22;26160;51.858;4.398;2024-03-25T12:00:09;13.00;93.90
40454;DHT22;26160;51.858;4.398;2024-03-25T12:02:43;12.70;99.90
40454;DHT22;26160;51.858;4.398;2024-03-25T12:05:11;13.10;99.90
40454;DHT22;26160;51.858;4.398;2024-03-25T12:07:37;13.20;1.00
40454;DHT22;26160;51.858;4.398;2024-03-25T12:10:04;13.10;1.00
40454;DHT22;26160;51.858;4.398;2024-03-25T12:12:48;13.20;1.00
40454;DHT22;26160;51.858;4.398;2024-03-25T12:15:16;13.20;1.00
40454;DHT22;26160;51.858;4.398;2024-03-25T12:17:43;13.30;1.00
40454;DHT22;26160;51.858;4.398;2024-03-25T12:20:09;13.40;1.00
40454;DHT22;26160;51.858;4.398;2024-03-25T12:22:39;13.90;1.00
40454;DHT22;26160;51.858;4.398;2024-03-25T12:25:07;13.90;99.90
40454;DHT22;26160;51.858;4.398;2024-03-25T12:27:36;13.50;1.00
40454;DHT22;26160;51.858;4.398;2024-03-25T12:30:08;13.50;99.90
40454;DHT22;26160;51.858;4.398;2024-03-25T12:32:37;13.90;99.90
40454;DHT22;26160;51.858;4.398;2024-03-25T12:35:15;13.90;1.00
40454;DHT22;26160;51.858;4.398;2024-03-25T12:37:45;14.00;77.60
40454;DHT22;26160;51.858;4.398;2024-03-25T12:40:34;14.30;1.00
40454;DHT22;26160;51.858;4.398;2024-03-25T12:42:59;14.30;1.00
40454;DHT22;26160;51.858;4.398;2024-03-25T12:45:25;13.70;1.00
40454;DHT22;26160;51.858;4.398;2024-03-25T12:47:52;13.50;1.00
40454;DHT22;26160;51.858;4.398;2024-03-25T12:50:18;13.60;1.00
40454;DHT22;26160;51.858;4.398;2024-03-25T12:52:45;13.80;1.00
40454;DHT22;26160;51.858;4.398;2024-03-25T12:55:11;13.60;1.00
40454;DHT22;26160;51.858;4.398;2024-03-25T12:57:37;13.70;99.90
40454;DHT22;26160;51.858;4.398;2024-03-25T13:00:03;13.40;1.00
40454;DHT22;26160;51.858;4.398;2024-03-25T13:02:30;13.10;1.00
40454;DHT22;26160;51.858;4.398;2024-03-25T13:04:57;13.10;77.50
40454;DHT22;26160;51.858;4.398;2024-03-25T13:07:23;13.30;1.00
40454;DHT22;26160;51.858;4.398;2024-03-25T13:09:50;13.10;1.00
40454;DHT22;26160;51.858;4.398;2024-03-25T13:12:16;13.10;1.00
40454;DHT22;26160;51.858;4.398;2024-03-25T13:14:42;13.20;1.00
40454;DHT22;26160;51.858;4.398;2024-03-25T13:17:08;13.20;1.00
40454;DHT22;26160;51.858;4.398;2024-03-25T13:19:35;13.00;1.00
40454;DHT22;26160;51.858;4.398;2024-03-25T13:22:01;13.10;1.00
40454;DHT22;26160;51.858;4.398;2024-03-25T13:24:27;13.40;1.00
40454;DHT22;26160;51.858;4.398;2024-03-25T13:26:54;13.60;99.90
40454;DHT22;26160;51.858;4.398;2024-03-25T13:29:20;13.80;99.90
40454;DHT22;26160;51.858;4.398;2024-03-25T13:31:46;13.80;99.90
40454;DHT22;26160;51.858;4.398;2024-03-25T13:34:13;13.70;1.00
40454;DHT22;26160;51.858;4.398;2024-03-25T13:36:39;13.50;1.00
40454;DHT22;26160;51.858;4.398;2024-03-25T13:39:05;13.50;1.00
40454;DHT22;26160;51.858;4.398;2024-03-25T13:41:32;13.60;1.00
40454;DHT22;26160;51.858;4.398;2024-03-25T13:43:58;13.40;99.90
40454;DHT22;26160;51.858;4.398;2024-03-25T13:46:25;13.10;1.00
40454;DHT22;26160;51.858;4.398;2024-03-25T13:48:51;12.80;1.00
40454;DHT22;26160;51.858;4.398;2024-03-25T13:51:18;12.70;99.90
40454;DHT22;26160;51.858;4.398;2024-03-25T13:53:44;13.00;1.00
40454;DHT22;26160;51.858;4.398;2024-03-25T13:56:13;13.40;99.90
40454;DHT22;26160;51.858;4.398;2024-03-25T13:58:39;13.70;99.90
40454;DHT22;26160;51.858;4.398;2024-03-25T14:01:05;13.70;99.90
40454;DHT22;26160;51.858;4.398;2024-03-25T14:03:33;13.90;99.90
40454;DHT22;26160;51.858;4.398;2024-03-25T14:05:59;14.10;99.90
40454;DHT22;26160;51.858;4.398;2024-03-25T14:08:25;14.30;99.90
40454;DHT22;26160;51.858;4.398;2024-03-25T14:10:58;14.30;99.90
40454;DHT22;26160;51.858;4.398;2024-03-25T14:13:26;14.50;99.90
40454;DHT22;26160;51.858;4.398;2024-03-25T14:15:52;14.40;99.90
40454;DHT22;26160;51.858;4.398;2024-03-25T14:18:18;14.30;99.90
40454;DHT22;26160;51.858;4.398;2024-03-25T14:20:45;13.90;99.90
40454;DHT22;26160;51.858;4.398;2024-03-25T14:23:14;14.20;99.90
40454;DHT22;26160;51.858;4.398;2024-03-25T14:25:43;14.60;99.90
40454;DHT22;26160;51.858;4.398;2024-03-25T14:28:11;14.30;99.90
40454;DHT22;26160;51.858;4.398;2024-03-25T14:30:37;14.10;99.90
40454;DHT22;26160;51.858;4.398;2024-03-25T14:33:04;13.80;99.90
40454;DHT22;26160;51.858;4.398;2024-03-25T14:35:31;13.60;99.90
40454;DHT22;26160;51.858;4.398;2024-03-25T14:37:58;13.30;99.90
40454;DHT22;26160;51.858;4.398;2024-03-25T14:40:25;13.10;99.90
40454;DHT22;26160;51.858;4.398;2024-03-25T14:42:51;12.90;99.90
40454;DHT22;26160;51.858;4.398;2024-03-25T14:45:17;13.10;99.90
40454;DHT22;26160;51.858;4.398;2024-03-25T14:47:44;13.10;99.90
40454;DHT22;26160;51.858;4.398;2024-03-25T14:50:13;13.00;99.90
40454;DHT22;26160;51.858;4.398;2024-03-25T14:52:42;12.80;99.90
40454;DHT22;26160;51.858;4.398;2024-03-25T14:55:09;12.80;99.90
40454;DHT22;26160;51.858;4.398;2024-03-25T14:57:37;12.60;99.90
40454;DHT22;26160;51.858;4.398;2024-03-25T15:00:03;12.70;99.90
40454;DHT22;26160;51.858;4.398;2024-03-25T15:02:31;13.00;99.90
40454;DHT22;26160;51.858;4.398;2024-03-25T15:04:57;13.20;99.90
40454;DHT22;26160;51.858;4.398;2024-03-25T15:07:23;13.20;99.90
40454;DHT22;26160;51.858;4.398;2024-03-25T15:09:49;13.00;99.90
40454;DHT22;26160;51.858;4.398;2024-03-25T15:12:15;13.00;99.90
40454;DHT22;26160;51.858;4.398;2024-03-25T15:14:42;13.20;99.90
40454;DHT22;26160;51.858;4.398;2024-03-25T15:17:08;13.40;99.90
40454;DHT22;26160;51.858;4.398;2024-03-25T15:19:34;13.50;99.90
40454;DHT22;26160;51.858;4.398;2024-03-25T15:22:01;13.50;99.90
40454;DHT22;26160;51.858;4.398;2024-03-25T15:24:27;13.50;99.90
40454;DHT22;26160;51.858;4.398;2024-03-25T15:26:53;13.50;99.90
40454;DHT22;26160;51.858;4.398;2024-03-25T15:29:19;13.50;99.90
40454;DHT22;26160;51.858;4.398;2024-03-25T15:31:45;13.50;99.90
40454;DHT22;26160;51.858;4.398;2024-03-25T15:34:12;13.30;99.90
40454;DHT22;26160;51.858;4.398;2024-03-25T15:36:38;13.40;99.90
40454;DHT22;26160;51.858;4.398;2024-03-25T15:39:04;13.40;99.90
40454;DHT22;26160;51.858;4.398;2024-03-25T15:41:31;13.20;99.90
40454;DHT22;26160;51.858;4.398;2024-03-25T15:43:57;13.30;99.90
40454;DHT22;26160;51.858;4.398;2024-03-25T15:46:23;13.20;99.90
40454;DHT22;26160;51.858;4.398;2024-03-25T15:48:49;13.20;99.90
40454;DHT22;26160;51.858;4.398;2024-03-25T15:51:15;13.40;99.90